Terminal Aerodrome Forecast
Issued by NWS

Home | Current Version | Previous Version | Text Only | Print | Product List | Glossary On
Versions: 1 2 3 4 5 6 7 8 9 10 11 12 13 14 15 16 17 18 19 20
000
FTUS43 KIND 230520
TAFBMG
TAF
KBMG 230520Z 2306/2406 20005KT P6SM SCT130
     FM230800 20005KT P6SM SCT025 BKN070
     FM231300 21004KT 5SM BR BKN025
     FM231700 21006KT P6SM BKN035
     FM232000 19007KT P6SM BKN030
     FM240200 16005KT P6SM BKN015
     FM240400 16007KT 6SM BR BKN020
      AMD LTD TO CLD VIS AND WIND TIL 231400=

USA.gov is the U.S. government's official web portal to all federal, state and local government web resources and services.